createdAt,value
2023-05-04T00:00:11.055Z,2.20
2023-05-04T00:02:38.996Z,2.15
2023-05-04T00:05:08.436Z,2.38
2023-05-04T00:07:36.455Z,2.00
2023-05-04T00:10:04.945Z,2.88
2023-05-04T00:12:34.585Z,2.33
2023-05-04T00:15:02.387Z,2.42
2023-05-04T00:17:30.109Z,2.35
2023-05-04T00:19:58.344Z,2.70
2023-05-04T00:22:26.061Z,2.63
2023-05-04T00:24:53.737Z,2.40
2023-05-04T00:27:21.739Z,2.95
2023-05-04T00:29:50.817Z,2.25
2023-05-04T00:32:18.578Z,2.40
2023-05-04T00:34:46.321Z,2.50
2023-05-04T00:37:14.004Z,2.40
2023-05-04T00:39:41.677Z,2.63
2023-05-04T00:42:09.503Z,3.30
2023-05-04T00:44:41.107Z,2.47
2023-05-04T00:47:10.507Z,2.40
2023-05-04T00:49:38.772Z,2.25
2023-05-04T00:52:07.801Z,2.58
2023-05-04T00:54:35.883Z,2.55
2023-05-04T00:57:04.505Z,2.88
2023-05-04T00:59:32.199Z,2.63
2023-05-04T01:01:59.856Z,2.38
2023-05-04T01:04:29.194Z,2.28
2023-05-04T01:07:04.744Z,2.70
2023-05-04T01:09:38.093Z,2.90
2023-05-04T01:12:08.304Z,2.78
2023-05-04T01:14:37.439Z,2.38
2023-05-04T01:17:07.412Z,2.95
2023-05-04T01:19:36.641Z,2.55
2023-05-04T01:22:05.800Z,2.30
2023-05-04T01:24:34.052Z,2.75
2023-05-04T01:27:06.707Z,1.85
2023-05-04T01:29:43.698Z,2.60
2023-05-04T01:32:13.729Z,2.50
2023-05-04T01:34:42.200Z,2.63
2023-05-04T01:37:11.746Z,2.72
2023-05-04T01:39:39.836Z,2.80
2023-05-04T01:42:08.270Z,2.95
2023-05-04T01:44:36.052Z,2.90
2023-05-04T01:47:04.170Z,2.22
2023-05-04T01:49:31.926Z,2.55
2023-05-04T01:51:59.710Z,2.53
2023-05-04T01:54:28.762Z,2.20
2023-05-04T01:56:56.483Z,2.78
2023-05-04T01:59:24.280Z,2.20
2023-05-04T02:01:52.088Z,2.67
2023-05-04T02:04:19.962Z,2.10
2023-05-04T02:06:47.854Z,2.55
2023-05-04T02:09:15.651Z,2.83
2023-05-04T02:11:44.712Z,2.05
2023-05-04T02:14:12.395Z,1.92
2023-05-04T02:16:40.170Z,1.88
2023-05-04T02:19:08.005Z,2.42
2023-05-04T02:21:35.949Z,2.00
2023-05-04T02:24:06.218Z,2.33
2023-05-04T02:26:34.150Z,2.60
2023-05-04T02:29:05.001Z,2.35
2023-05-04T02:31:32.809Z,2.35
2023-05-04T02:34:01.324Z,1.95
2023-05-04T02:36:29.145Z,2.20
2023-05-04T02:38:56.865Z,2.22
2023-05-04T02:41:24.580Z,2.38
2023-05-04T02:43:52.331Z,2.22
2023-05-04T02:46:21.451Z,2.30
2023-05-04T02:48:49.260Z,1.92
2023-05-04T02:51:17.024Z,2.33
2023-05-04T02:53:44.722Z,3.47
2023-05-04T02:56:12.403Z,2.33
2023-05-04T02:58:40.156Z,2.50
2023-05-04T03:01:07.970Z,2.50
2023-05-04T03:03:37.151Z,2.03
2023-05-04T03:06:05.363Z,2.22
2023-05-04T03:08:33.106Z,2.83
2023-05-04T03:11:00.956Z,2.15
2023-05-04T03:13:28.695Z,1.83
2023-05-04T03:15:56.504Z,2.45
2023-05-04T03:18:24.387Z,2.65
2023-05-04T03:20:53.485Z,2.70
2023-05-04T03:23:21.252Z,2.92
2023-05-04T03:25:49.013Z,1.90
2023-05-04T03:28:16.788Z,2.38
2023-05-04T03:30:44.483Z,1.90
2023-05-04T03:33:12.250Z,2.20
2023-05-04T03:35:39.954Z,2.08
2023-05-04T03:38:09.939Z,2.17
2023-05-04T03:40:37.960Z,1.98
2023-05-04T03:43:05.709Z,2.50
2023-05-04T03:45:33.423Z,2.45
2023-05-04T03:48:01.219Z,2.78
2023-05-04T03:50:29.076Z,2.55
2023-05-04T03:52:57.040Z,2.30
2023-05-04T03:55:26.310Z,2.20
2023-05-04T03:57:54.047Z,2.00
2023-05-04T04:00:21.938Z,2.53
2023-05-04T04:02:49.725Z,2.25
2023-05-04T04:05:17.576Z,2.53
2023-05-04T04:07:45.254Z,2.60
2023-05-04T04:10:12.987Z,2.35
2023-05-04T04:12:42.325Z,2.03
2023-05-04T04:15:10.689Z,2.20
2023-05-04T04:17:38.475Z,1.70
2023-05-04T04:20:07.518Z,1.75
2023-05-04T04:22:35.449Z,2.45
2023-05-04T04:25:03.417Z,2.50
2023-05-04T04:27:31.274Z,2.67
2023-05-04T04:30:00.666Z,2.15
2023-05-04T04:32:29.076Z,2.60
2023-05-04T04:34:56.932Z,1.73
2023-05-04T04:37:24.614Z,2.38
2023-05-04T04:39:52.295Z,2.63
2023-05-04T04:42:20.114Z,2.28
2023-05-04T04:44:49.429Z,1.98
2023-05-04T04:47:18.877Z,2.33
2023-05-04T04:49:46.590Z,2.67
2023-05-04T04:52:15.588Z,2.70
2023-05-04T04:54:43.802Z,2.42
2023-05-04T04:57:11.595Z,2.08
2023-05-04T04:59:39.356Z,2.40
2023-05-04T05:02:07.199Z,2.47
2023-05-04T05:04:36.415Z,2.72
2023-05-04T05:07:04.168Z,2.67
2023-05-04T05:09:31.829Z,2.42
2023-05-04T05:11:59.582Z,3.05
2023-05-04T05:14:27.498Z,2.22
2023-05-04T05:16:55.316Z,2.20
2023-05-04T05:19:23.112Z,2.30
2023-05-04T05:21:52.394Z,2.20
2023-05-04T05:24:21.290Z,2.53
2023-05-04T05:26:49.008Z,2.33
2023-05-04T05:29:16.724Z,2.38
2023-05-04T05:31:44.418Z,2.30
2023-05-04T05:34:12.332Z,3.10
2023-05-04T05:36:40.471Z,2.78
2023-05-04T05:39:09.526Z,3.15
2023-05-04T05:41:37.255Z,2.60
2023-05-04T05:44:05.569Z,2.22
2023-05-04T05:46:33.402Z,2.92
2023-05-04T05:49:01.186Z,2.60
2023-05-04T05:51:28.861Z,2.65
2023-05-04T05:53:56.549Z,2.35
2023-05-04T05:56:25.748Z,2.58
2023-05-04T05:58:53.659Z,2.50
2023-05-04T06:01:21.384Z,3.05
2023-05-04T06:03:49.340Z,2.38
2023-05-04T06:06:17.293Z,2.53
2023-05-04T06:08:44.975Z,2.97
2023-05-04T06:11:12.702Z,2.95
2023-05-04T06:13:41.835Z,3.05
2023-05-04T06:16:09.591Z,2.95
2023-05-04T06:18:37.332Z,2.88
2023-05-04T06:21:05.330Z,3.05
2023-05-04T06:23:33.018Z,3.15
2023-05-04T06:26:00.893Z,2.60
2023-05-04T06:28:28.604Z,3.42
2023-05-04T06:30:57.927Z,2.63
2023-05-04T06:33:25.769Z,2.83
2023-05-04T06:35:53.703Z,3.45
2023-05-04T06:38:21.654Z,3.58
2023-05-04T06:40:49.589Z,3.00
2023-05-04T06:43:17.286Z,3.83
2023-05-04T06:45:45.059Z,3.72
2023-05-04T06:48:14.937Z,3.58
2023-05-04T06:50:42.736Z,3.72
2023-05-04T06:53:11.708Z,3.33
2023-05-04T06:55:39.446Z,3.28
2023-05-04T06:58:07.271Z,2.95
2023-05-04T07:00:36.161Z,3.22
2023-05-04T07:03:03.985Z,3.78
2023-05-04T07:05:35.409Z,3.50
2023-05-04T07:08:03.230Z,3.42
2023-05-04T07:10:31.515Z,2.95
2023-05-04T07:12:59.482Z,3.15
2023-05-04T07:15:27.192Z,3.40
2023-05-04T07:17:54.897Z,3.30
2023-05-04T07:20:25.641Z,3.13
2023-05-04T07:22:56.870Z,2.78
2023-05-04T07:25:25.151Z,3.33
2023-05-04T07:27:52.949Z,2.40
2023-05-04T07:30:21.585Z,3.50
2023-05-04T07:32:49.429Z,3.45
2023-05-04T07:35:17.251Z,2.92
2023-05-04T07:37:45.001Z,3.78
2023-05-04T07:40:15.570Z,3.55
2023-05-04T07:42:43.463Z,3.90
2023-05-04T07:45:11.827Z,3.50
2023-05-04T07:47:39.582Z,3.08
2023-05-04T07:50:08.552Z,3.42
2023-05-04T07:52:36.459Z,3.58
2023-05-04T07:55:04.328Z,3.53
2023-05-04T07:57:35.643Z,2.72
2023-05-04T08:00:05.114Z,3.47
2023-05-04T08:02:33.037Z,3.28
2023-05-04T08:05:00.857Z,3.17
2023-05-04T08:07:28.680Z,3.63
2023-05-04T08:09:57.159Z,3.17
2023-05-04T08:12:26.956Z,3.53
2023-05-04T08:14:56.056Z,2.88
2023-05-04T08:17:23.754Z,3.08
2023-05-04T08:19:51.884Z,2.88
2023-05-04T08:22:19.850Z,2.60
2023-05-04T08:24:48.116Z,3.15
2023-05-04T08:27:15.891Z,3.65
2023-05-04T08:29:43.900Z,2.83
2023-05-04T08:32:13.323Z,3.10
2023-05-04T08:34:41.019Z,3.33
2023-05-04T08:37:08.760Z,3.10
2023-05-04T08:39:36.541Z,2.45
2023-05-04T08:42:04.310Z,3.20
2023-05-04T08:44:32.172Z,2.95
2023-05-04T08:47:00.265Z,3.15
2023-05-04T08:49:30.577Z,3.53
2023-05-04T08:52:00.196Z,4.10
2023-05-04T08:54:29.711Z,3.60
2023-05-04T08:56:58.802Z,4.10
2023-05-04T08:59:29.316Z,3.45
2023-05-04T09:01:59.598Z,2.58
2023-05-04T09:04:29.774Z,2.80
2023-05-04T09:06:58.452Z,2.67
2023-05-04T09:09:28.743Z,3.08
2023-05-04T09:11:56.733Z,2.85
2023-05-04T09:14:33.637Z,2.25
2023-05-04T09:17:01.493Z,2.20
2023-05-04T09:19:33.703Z,2.78
2023-05-04T09:22:01.808Z,2.23
2023-05-04T09:24:30.191Z,2.42
2023-05-04T09:27:10.577Z,2.03
2023-05-04T09:29:39.766Z,2.33
2023-05-04T09:32:07.765Z,2.33
2023-05-04T09:34:37.454Z,2.45
2023-05-04T09:37:05.177Z,1.75
2023-05-04T09:39:32.897Z,2.53
2023-05-04T09:42:00.864Z,2.40
2023-05-04T09:44:29.775Z,2.25
2023-05-04T09:46:58.832Z,2.40
2023-05-04T09:49:33.389Z,2.53
2023-05-04T09:52:03.630Z,2.05
2023-05-04T09:54:34.892Z,1.40
2023-05-04T09:57:11.422Z,2.00
2023-05-04T09:59:39.226Z,1.65
2023-05-04T10:02:21.278Z,1.10
2023-05-04T10:04:51.650Z,1.48
2023-05-04T10:07:21.737Z,0.85
2023-05-04T10:09:50.250Z,1.20
2023-05-04T10:12:18.428Z,0.98
2023-05-04T10:14:47.181Z,1.08
2023-05-04T10:17:24.937Z,0.90
2023-05-04T10:20:07.506Z,0.57
2023-05-04T10:22:52.377Z,0.80
2023-05-04T10:25:42.095Z,0.90
2023-05-04T10:28:22.301Z,0.73
2023-05-04T10:30:57.000Z,0.60
2023-05-04T10:33:24.786Z,0.52
2023-05-04T10:35:53.863Z,0.38
2023-05-04T10:38:33.065Z,0.45
2023-05-04T10:41:00.797Z,0.50
2023-05-04T10:43:29.931Z,0.57
2023-05-04T10:45:58.676Z,0.35
2023-05-04T10:48:35.377Z,0.32
2023-05-04T10:51:04.433Z,0.38
2023-05-04T10:53:34.276Z,0.30
2023-05-04T10:56:02.783Z,0.80
2023-05-04T10:58:30.915Z,0.40
2023-05-04T11:00:58.745Z,0.60
2023-05-04T11:03:26.888Z,0.43
2023-05-04T11:05:55.426Z,0.50
2023-05-04T11:08:24.394Z,0.95
2023-05-04T11:11:03.813Z,0.38
2023-05-04T11:13:32.077Z,0.40
2023-05-04T11:15:59.786Z,0.45
2023-05-04T11:18:28.926Z,0.47
2023-05-04T11:20:57.018Z,0.30
2023-05-04T11:23:25.169Z,0.40
2023-05-04T11:25:53.626Z,0.50
2023-05-04T11:28:32.650Z,0.73
2023-05-04T11:31:00.370Z,0.52
2023-05-04T11:33:29.621Z,0.60
2023-05-04T11:36:02.264Z,0.80
2023-05-04T11:38:30.199Z,0.40
2023-05-04T11:40:58.007Z,0.70
2023-05-04T11:43:27.367Z,0.40
2023-05-04T11:45:57.964Z,0.30
2023-05-04T11:48:26.218Z,0.68
2023-05-04T11:50:55.212Z,0.57
2023-05-04T11:53:23.262Z,0.77
2023-05-04T11:55:52.401Z,0.75
2023-05-04T11:58:25.680Z,0.65
2023-05-04T12:00:58.873Z,0.57
2023-05-04T12:03:35.976Z,0.52
2023-05-04T12:06:16.022Z,1.70
2023-05-04T12:08:44.047Z,0.63
2023-05-04T12:11:16.406Z,0.75
2023-05-04T12:13:46.020Z,0.60
2023-05-04T12:16:16.382Z,0.80
2023-05-04T12:18:45.359Z,1.33
2023-05-04T12:21:14.579Z,0.50
2023-05-04T12:23:42.977Z,0.50
2023-05-04T12:26:11.652Z,1.48
2023-05-04T12:28:40.607Z,0.60
2023-05-04T12:31:08.850Z,0.80
2023-05-04T12:33:37.947Z,0.55
2023-05-04T12:36:06.403Z,0.65
2023-05-04T12:38:34.390Z,0.52
2023-05-04T12:41:04.384Z,1.30
2023-05-04T12:43:33.133Z,0.80
2023-05-04T12:46:01.243Z,0.80
2023-05-04T12:48:31.886Z,0.75
2023-05-04T12:51:01.860Z,0.50
2023-05-04T12:53:31.927Z,1.30
2023-05-04T12:56:01.238Z,0.55
2023-05-04T12:58:29.122Z,1.38
2023-05-04T13:00:57.813Z,0.47
2023-05-04T13:03:25.682Z,0.80
2023-05-04T13:05:53.610Z,1.02
2023-05-04T13:08:22.648Z,0.70
2023-05-04T13:10:50.354Z,0.60
2023-05-04T13:13:21.251Z,0.50
2023-05-04T13:15:51.073Z,0.82
2023-05-04T13:18:18.953Z,0.90
2023-05-04T13:20:46.862Z,0.73
2023-05-04T13:23:15.276Z,0.70
2023-05-04T13:25:44.364Z,1.23
2023-05-04T13:28:12.099Z,0.95
2023-05-04T13:30:39.881Z,0.82
2023-05-04T13:33:16.814Z,0.43
2023-05-04T13:35:49.021Z,0.50
2023-05-04T13:38:16.898Z,0.90
2023-05-04T13:40:45.950Z,0.63
2023-05-04T13:43:13.723Z,0.77
2023-05-04T13:45:41.427Z,0.90
2023-05-04T13:48:09.171Z,1.20
2023-05-04T13:50:36.987Z,0.52
2023-05-04T13:53:04.729Z,0.32
2023-05-04T13:55:32.498Z,0.65
2023-05-04T13:58:01.745Z,0.90
2023-05-04T14:00:29.582Z,1.63
2023-05-04T14:02:57.562Z,0.57
2023-05-04T14:05:25.683Z,0.68
2023-05-04T14:07:53.730Z,0.50
2023-05-04T14:10:21.597Z,0.73
2023-05-04T14:12:49.424Z,0.60
2023-05-04T14:15:22.413Z,0.65
2023-05-04T14:20:18.018Z,0.20
2023-05-04T14:22:46.321Z,0.57
2023-05-04T14:25:14.847Z,0.20
2023-05-04T14:27:43.782Z,0.50
2023-05-04T14:30:12.714Z,0.40
2023-05-04T14:32:42.682Z,0.50
2023-05-04T14:35:12.312Z,1.00
2023-05-04T14:37:41.049Z,0.30
2023-05-04T14:40:10.399Z,0.50
2023-05-04T14:42:38.843Z,0.65
2023-05-04T14:45:08.361Z,0.40
2023-05-04T14:47:36.458Z,0.30
2023-05-04T14:50:07.128Z,0.68
2023-05-04T14:52:35.014Z,0.20
2023-05-04T14:55:02.844Z,0.40
2023-05-04T14:57:30.596Z,0.85
2023-05-04T14:59:58.328Z,0.22
2023-05-04T15:02:26.484Z,0.47
2023-05-04T15:04:54.236Z,0.57
2023-05-04T15:07:23.489Z,0.22
2023-05-04T15:09:51.202Z,0.40
2023-05-04T15:12:18.990Z,0.50
2023-05-04T15:14:47.052Z,0.73
2023-05-04T15:17:14.794Z,0.52
2023-05-04T15:19:43.625Z,0.40
2023-05-04T15:22:11.366Z,0.50
2023-05-04T15:24:40.384Z,0.77
2023-05-04T15:27:08.115Z,1.10
2023-05-04T15:29:35.849Z,0.90
2023-05-04T15:32:03.574Z,1.15
2023-05-04T15:34:31.347Z,1.17
2023-05-04T15:36:59.095Z,0.50
2023-05-04T15:39:27.473Z,0.60
2023-05-04T15:41:56.567Z,0.98
2023-05-04T15:44:26.021Z,0.70
2023-05-04T15:46:53.721Z,0.93
2023-05-04T15:49:21.470Z,0.50
2023-05-04T15:51:49.130Z,0.60
2023-05-04T15:54:16.863Z,0.85
2023-05-04T15:56:44.896Z,0.82
2023-05-04T15:59:16.838Z,0.57
2023-05-04T16:01:44.636Z,1.08
2023-05-04T16:04:12.639Z,1.67
2023-05-04T16:06:40.699Z,0.82
2023-05-04T16:09:08.362Z,1.30
2023-05-04T16:11:37.387Z,1.00
2023-05-04T16:14:05.068Z,0.90
2023-05-04T16:16:34.270Z,0.90
2023-05-04T16:19:01.989Z,0.73
2023-05-04T16:21:30.085Z,0.80
2023-05-04T16:23:57.756Z,0.65
2023-05-04T16:26:25.415Z,0.82
2023-05-04T16:28:53.164Z,0.75
2023-05-04T16:31:20.936Z,0.82
2023-05-04T16:33:50.036Z,1.15
2023-05-04T16:36:17.719Z,1.15
2023-05-04T16:38:45.745Z,0.80
2023-05-04T16:41:13.424Z,0.60
2023-05-04T16:43:41.147Z,0.95
2023-05-04T16:46:09.008Z,0.65
2023-05-04T16:48:37.942Z,1.10
2023-05-04T16:51:08.147Z,0.95
2023-05-04T16:53:35.960Z,0.80
2023-05-04T16:56:04.284Z,1.10
2023-05-04T16:58:32.031Z,0.95
2023-05-04T17:00:59.727Z,0.80
2023-05-04T17:03:27.880Z,0.95
2023-05-04T17:05:55.647Z,1.33
2023-05-04T17:08:25.150Z,1.05
2023-05-04T17:10:52.868Z,1.05
2023-05-04T17:13:20.665Z,1.98
2023-05-04T17:15:48.383Z,0.60
2023-05-04T17:18:16.109Z,0.90
2023-05-04T17:20:43.839Z,1.52
2023-05-04T17:23:11.623Z,1.30
2023-05-04T17:25:41.507Z,1.00
2023-05-04T17:28:09.204Z,1.25
2023-05-04T17:30:37.172Z,1.83
2023-05-04T17:33:05.139Z,1.25
2023-05-04T17:35:32.870Z,0.80
2023-05-04T17:38:00.603Z,2.28
2023-05-04T17:40:29.381Z,1.20
2023-05-04T17:42:58.682Z,1.70
2023-05-04T17:45:26.775Z,1.55
2023-05-04T17:47:54.897Z,0.85
2023-05-04T17:50:23.585Z,0.90
2023-05-04T17:52:55.137Z,1.70
2023-05-04T17:55:24.542Z,1.52
2023-05-04T17:57:53.600Z,0.98
2023-05-04T18:00:23.529Z,0.73
2023-05-04T18:02:51.404Z,1.52
2023-05-04T18:05:19.270Z,1.65
2023-05-04T18:07:46.978Z,0.93
2023-05-04T18:10:14.718Z,1.23
2023-05-04T18:12:42.487Z,1.48
2023-05-04T18:15:10.998Z,1.08
2023-05-04T18:17:40.109Z,1.50
2023-05-04T18:20:10.304Z,0.85
2023-05-04T18:22:38.248Z,1.05
2023-05-04T18:25:06.944Z,0.73
2023-05-04T18:27:35.090Z,1.08
2023-05-04T18:30:03.713Z,1.08
2023-05-04T18:32:31.578Z,1.50
2023-05-04T18:35:01.469Z,0.85
2023-05-04T18:37:30.642Z,0.90
2023-05-04T18:39:58.914Z,1.10
2023-05-04T18:42:27.008Z,1.63
2023-05-04T18:44:55.200Z,0.70
2023-05-04T18:47:22.979Z,1.40
2023-05-04T18:49:52.158Z,1.65
2023-05-04T18:52:21.578Z,1.00
2023-05-04T18:54:49.582Z,1.20
2023-05-04T18:57:17.341Z,1.35
2023-05-04T18:59:45.131Z,0.90
2023-05-04T19:02:13.008Z,1.02
2023-05-04T19:04:40.709Z,1.20
2023-05-04T19:07:09.766Z,1.17
2023-05-04T19:09:38.952Z,0.73
2023-05-04T19:12:07.292Z,1.17
2023-05-04T19:14:34.958Z,1.83
2023-05-04T19:17:04.873Z,1.55
2023-05-04T19:19:36.349Z,1.23
2023-05-04T19:22:04.368Z,2.00
2023-05-04T19:24:34.331Z,1.20
2023-05-04T19:27:03.704Z,0.93
2023-05-04T19:29:31.491Z,1.83
2023-05-04T19:32:01.293Z,0.98
2023-05-04T19:34:33.611Z,0.70
2023-05-04T19:37:01.362Z,1.52
2023-05-04T19:39:29.474Z,1.40
2023-05-04T19:41:57.244Z,1.25
2023-05-04T19:44:26.271Z,1.58
2023-05-04T19:46:54.030Z,1.38
2023-05-04T19:49:22.277Z,1.00
2023-05-04T19:51:49.980Z,1.15
2023-05-04T19:54:17.734Z,1.00
2023-05-04T19:56:45.472Z,1.00
2023-05-04T19:59:13.259Z,0.82
2023-05-04T20:01:42.357Z,0.93
2023-05-04T20:04:10.145Z,1.10
2023-05-04T20:06:37.971Z,1.23
2023-05-04T20:09:05.786Z,1.08
2023-05-04T20:11:33.764Z,1.75
2023-05-04T20:14:01.436Z,1.27
2023-05-04T20:16:29.226Z,0.93
2023-05-04T20:18:58.738Z,1.48
2023-05-04T20:21:27.887Z,0.73
2023-05-04T20:23:55.737Z,1.10
2023-05-04T20:26:23.652Z,1.98
2023-05-04T20:28:51.402Z,1.05
2023-05-04T20:31:19.178Z,1.92
2023-05-04T20:33:46.844Z,1.20
2023-05-04T20:36:15.996Z,1.67
2023-05-04T20:38:43.647Z,1.65
2023-05-04T20:41:11.949Z,1.35
2023-05-04T20:43:39.738Z,1.45
2023-05-04T20:46:07.904Z,1.27
2023-05-04T20:48:35.655Z,1.33
2023-05-04T20:51:14.028Z,1.60
2023-05-04T20:53:44.372Z,1.55
2023-05-04T20:56:12.338Z,1.40
2023-05-04T20:58:40.028Z,1.60
2023-05-04T21:01:08.025Z,1.83
2023-05-04T21:03:36.290Z,1.10
2023-05-04T21:06:05.031Z,0.80
2023-05-04T21:08:32.772Z,2.05
2023-05-04T21:11:01.875Z,1.42
2023-05-04T21:13:29.663Z,1.63
2023-05-04T21:15:59.368Z,1.63
2023-05-04T21:18:27.196Z,1.85
2023-05-04T21:20:55.083Z,1.63
2023-05-04T21:23:23.660Z,1.55
2023-05-04T21:25:51.368Z,1.73
2023-05-04T21:28:20.496Z,1.92
2023-05-04T21:30:48.242Z,1.70
2023-05-04T21:33:15.923Z,1.20
2023-05-04T21:35:43.782Z,1.10
2023-05-04T21:38:11.523Z,2.33
2023-05-04T21:40:39.261Z,2.35
2023-05-04T21:43:07.153Z,1.35
2023-05-04T21:45:36.251Z,1.42
2023-05-04T21:48:04.894Z,1.20
2023-05-04T21:50:33.079Z,1.30
2023-05-04T21:53:00.823Z,1.48
2023-05-04T21:55:30.377Z,1.63
2023-05-04T21:57:58.352Z,1.05
2023-05-04T22:00:26.478Z,1.42
2023-05-04T22:02:56.417Z,2.03
2023-05-04T22:05:24.278Z,1.63
2023-05-04T22:07:51.978Z,3.35
2023-05-04T22:10:19.770Z,1.90
2023-05-04T22:12:47.601Z,2.58
2023-05-04T22:15:15.549Z,2.00
2023-05-04T22:17:43.280Z,1.48
2023-05-04T22:20:13.898Z,1.25
2023-05-04T22:22:41.616Z,1.67
2023-05-04T22:25:10.015Z,2.03
2023-05-04T22:27:37.681Z,1.73
2023-05-04T22:30:06.602Z,1.52
2023-05-04T22:32:35.209Z,2.67
2023-05-04T22:35:03.268Z,2.63
2023-05-04T22:37:32.365Z,1.60
2023-05-04T22:40:00.875Z,1.58
2023-05-04T22:42:29.004Z,1.55
2023-05-04T22:44:56.874Z,1.45
2023-05-04T22:47:24.657Z,1.83
2023-05-04T22:49:55.011Z,1.65
2023-05-04T22:52:23.141Z,1.98
2023-05-04T22:54:52.743Z,1.83
2023-05-04T22:57:20.771Z,1.40
2023-05-04T22:59:48.548Z,1.83
2023-05-04T23:02:16.538Z,1.77
2023-05-04T23:04:44.748Z,0.82
2023-05-04T23:07:12.826Z,1.38
2023-05-04T23:09:43.271Z,1.73
2023-05-04T23:12:12.490Z,1.38
2023-05-04T23:14:40.276Z,1.25
2023-05-04T23:17:08.140Z,2.33
2023-05-04T23:19:36.041Z,1.40
2023-05-04T23:22:03.846Z,1.35
2023-05-04T23:24:31.562Z,1.80
2023-05-04T23:26:59.793Z,1.27
2023-05-04T23:29:28.974Z,1.52
2023-05-04T23:31:56.798Z,1.05
2023-05-04T23:34:24.667Z,1.90
2023-05-04T23:36:54.189Z,1.60
2023-05-04T23:39:21.988Z,1.60
2023-05-04T23:41:49.779Z,2.03
2023-05-04T23:44:17.484Z,1.75
2023-05-04T23:46:46.522Z,1.63
2023-05-04T23:49:14.244Z,1.40
2023-05-04T23:51:42.003Z,1.17
2023-05-04T23:54:10.544Z,1.08
2023-05-04T23:56:38.317Z,1.48
2023-05-04T23:59:06.015Z,2.28
